createdAt,value
2022-08-14T00:01:11.361Z,10.23
2022-08-14T00:03:40.445Z,9.70
2022-08-14T00:08:45.402Z,11.18
2022-08-14T00:11:14.093Z,11.80
2022-08-14T00:13:52.743Z,13.57
2022-08-14T00:16:40.886Z,9.85
2022-08-14T00:19:19.325Z,10.20
2022-08-14T00:21:48.035Z,13.25
2022-08-14T00:24:28.236Z,10.35
2022-08-14T00:26:57.423Z,10.05
2022-08-14T00:29:33.136Z,9.57
2022-08-14T00:32:50.609Z,10.98
2022-08-14T00:37:29.911Z,10.40
2022-08-14T00:40:00.296Z,9.70
2022-08-14T00:42:55.104Z,11.20
2022-08-14T00:55:23.366Z,10.13
2022-08-14T00:58:12.042Z,13.23
2022-08-14T01:00:50.874Z,11.07
2022-08-14T01:03:21.373Z,11.50
2022-08-14T01:08:51.856Z,13.63
2022-08-14T01:13:42.966Z,10.88
2022-08-14T01:19:01.367Z,12.88
2022-08-14T01:21:34.673Z,14.02
2022-08-14T01:24:09.846Z,15.32
2022-08-14T01:26:39.257Z,13.20
2022-08-14T01:29:10.845Z,12.40
2022-08-14T01:31:45.364Z,11.40
2022-08-14T01:35:18.572Z,11.80
2022-08-14T01:37:07.574Z,10.90
2022-08-14T01:39:39.096Z,12.70
2022-08-14T01:42:07.393Z,20.20
2022-08-14T01:44:38.873Z,13.57
2022-08-14T01:47:19.557Z,13.35
2022-08-14T01:50:01.407Z,13.05
2022-08-14T01:52:58.613Z,14.10
2022-08-14T01:55:23.289Z,12.43
2022-08-14T01:58:00.910Z,14.07
2022-08-14T02:00:39.963Z,11.80
2022-08-14T02:05:38.228Z,13.48
2022-08-14T02:10:47.304Z,11.95
2022-08-14T02:15:50.323Z,14.23
2022-08-14T02:23:29.161Z,13.07
2022-08-14T02:26:24.758Z,12.60
2022-08-14T02:31:42.051Z,19.00
2022-08-14T02:39:36.050Z,13.05
2022-08-14T02:42:05.621Z,16.10
2022-08-14T02:44:39.460Z,11.57
2022-08-14T02:47:15.053Z,14.32
2022-08-14T02:52:56.454Z,12.88
2022-08-14T02:55:19.850Z,12.10
2022-08-14T03:00:27.280Z,14.60
2022-08-14T03:02:58.658Z,11.95
2022-08-14T03:08:08.410Z,12.60
2022-08-14T03:10:41.949Z,17.75
2022-08-14T03:13:19.070Z,14.02
2022-08-14T03:18:18.950Z,14.55
2022-08-14T03:23:28.224Z,15.05
2022-08-14T03:25:57.896Z,15.65
2022-08-14T03:28:33.385Z,15.82
2022-08-14T03:31:01.813Z,14.13
2022-08-14T03:33:37.513Z,15.02
2022-08-14T03:37:50.852Z,18.45
2022-08-14T03:41:45.660Z,15.77
2022-08-14T03:45:25.271Z,16.65
2022-08-14T03:47:03.183Z,16.08
2022-08-14T03:49:31.315Z,14.48
2022-08-14T03:52:07.767Z,17.40
2022-08-14T03:54:52.880Z,16.02
2022-08-14T03:57:22.796Z,18.23
2022-08-14T03:59:51.673Z,17.35
2022-08-14T04:02:32.581Z,17.02
2022-08-14T04:05:08.163Z,16.88
2022-08-14T04:07:49.921Z,18.27
2022-08-14T04:10:32.236Z,15.60
2022-08-14T04:13:03.707Z,14.52
2022-08-14T04:15:56.575Z,15.57
2022-08-14T04:23:23.270Z,16.75
2022-08-14T04:25:54.096Z,17.05
2022-08-14T04:29:08.582Z,17.58
2022-08-14T04:33:40.490Z,17.00
2022-08-14T04:36:09.273Z,14.93
2022-08-14T04:39:01.350Z,15.05
2022-08-14T04:41:47.178Z,16.83
2022-08-14T04:44:36.037Z,15.90
2022-08-14T04:47:22.625Z,20.05
2022-08-14T04:49:57.213Z,17.52
2022-08-14T04:52:25.706Z,14.75
2022-08-14T04:59:53.188Z,14.77
2022-08-14T05:02:24.543Z,16.08
2022-08-14T05:04:56.741Z,16.65
2022-08-14T05:07:46.964Z,16.35
2022-08-14T05:13:13.449Z,17.73
2022-08-14T05:15:37.398Z,15.40
2022-08-14T05:18:17.350Z,16.08
2022-08-14T05:21:55.108Z,17.95
2022-08-14T05:23:41.924Z,16.42
2022-08-14T05:28:46.740Z,16.83
2022-08-14T05:31:20.800Z,16.63
2022-08-14T05:33:56.611Z,16.88
2022-08-14T05:36:27.112Z,15.32
2022-08-14T05:41:23.436Z,14.43
2022-08-14T05:44:05.307Z,19.17
2022-08-14T05:46:35.436Z,14.68
2022-08-14T05:49:05.592Z,13.30
2022-08-14T05:51:36.908Z,16.00
2022-08-14T05:54:13.678Z,13.55
2022-08-14T05:56:54.311Z,15.00
2022-08-14T05:59:36.623Z,16.05
2022-08-14T06:04:38.535Z,14.02
2022-08-14T06:07:06.622Z,16.83
2022-08-14T06:09:36.005Z,13.75
2022-08-14T06:12:09.540Z,14.05
2022-08-14T06:14:37.651Z,17.63
2022-08-14T06:17:08.349Z,16.02
2022-08-14T06:19:36.204Z,17.92
2022-08-14T06:22:04.567Z,15.55
2022-08-14T06:24:34.857Z,16.65
2022-08-14T06:32:38.853Z,12.23
2022-08-14T06:35:11.553Z,14.88
2022-08-14T06:37:42.539Z,14.43
2022-08-14T06:40:25.802Z,13.43
2022-08-14T06:42:55.476Z,15.73
2022-08-14T06:45:26.068Z,19.70
2022-08-14T06:47:54.707Z,12.93
2022-08-14T06:50:27.908Z,14.50
2022-08-14T06:52:56.821Z,15.30
2022-08-14T06:55:28.331Z,15.98
2022-08-14T06:57:58.021Z,16.02
2022-08-14T07:03:17.270Z,12.75
2022-08-14T07:05:55.351Z,14.32
2022-08-14T07:08:31.207Z,16.35
2022-08-14T07:11:04.037Z,12.52
2022-08-14T07:16:05.477Z,11.35
2022-08-14T07:18:35.582Z,11.90
2022-08-14T07:21:07.322Z,14.05
2022-08-14T07:23:40.156Z,10.73
2022-08-14T07:26:13.620Z,9.85
2022-08-14T07:28:43.819Z,10.10
2022-08-14T07:31:13.452Z,12.65
2022-08-14T07:33:49.990Z,14.82
2022-08-14T07:36:27.545Z,12.15
2022-08-14T07:38:59.525Z,12.25
2022-08-14T07:41:31.225Z,9.88
2022-08-14T07:44:29.636Z,8.85
2022-08-14T07:46:50.953Z,10.02
2022-08-14T07:49:20.017Z,8.45
2022-08-14T07:54:23.396Z,8.43
2022-08-14T07:59:41.308Z,10.60
2022-08-14T08:02:19.651Z,9.82
2022-08-14T08:04:53.157Z,8.95
2022-08-14T08:07:29.554Z,9.02
2022-08-14T08:12:40.416Z,8.55
2022-08-14T08:15:08.919Z,8.35
2022-08-14T08:17:42.575Z,9.27
2022-08-14T08:20:20.164Z,9.23
2022-08-14T08:22:55.572Z,9.27
2022-08-14T08:25:24.544Z,10.57
2022-08-14T08:28:00.219Z,9.35
2022-08-14T08:39:14.464Z,8.05
2022-08-14T08:41:09.632Z,11.10
2022-08-14T08:43:46.219Z,7.85
2022-08-14T08:46:21.480Z,9.52
2022-08-14T08:51:31.136Z,9.35
2022-08-14T08:54:06.079Z,8.07
2022-08-14T08:56:39.540Z,7.88
2022-08-14T09:01:52.387Z,11.63
2022-08-14T09:04:26.446Z,7.88
2022-08-14T09:07:08.998Z,7.18
2022-08-14T09:12:22.776Z,6.95
2022-08-14T09:17:25.902Z,7.00
2022-08-14T09:19:54.585Z,6.95
2022-08-14T09:25:07.659Z,7.45
2022-08-14T09:27:36.325Z,6.35
2022-08-14T09:30:13.197Z,8.05
2022-08-14T09:38:30.182Z,6.97
2022-08-14T09:43:48.985Z,6.85
2022-08-14T09:48:59.821Z,6.93
2022-08-14T09:56:57.329Z,10.82
2022-08-14T10:01:57.244Z,5.63
2022-08-14T10:04:36.030Z,7.18
2022-08-14T10:17:50.670Z,5.38
2022-08-14T10:23:17.948Z,4.88
2022-08-14T10:25:50.648Z,5.75
2022-08-14T10:33:50.502Z,5.68
2022-08-14T10:36:34.754Z,6.40
2022-08-14T11:15:49.338Z,5.25
2022-08-14T11:25:53.022Z,4.50
2022-08-14T12:04:32.227Z,4.45
2022-08-14T12:11:59.673Z,4.38
2022-08-14T12:14:34.586Z,4.00
2022-08-14T13:44:37.638Z,4.55
2022-08-14T14:59:12.586Z,4.63
2022-08-14T15:01:41.515Z,3.70
2022-08-14T17:29:29.379Z,4.35
2022-08-14T18:25:02.776Z,5.22
2022-08-14T18:30:33.422Z,6.88
2022-08-14T18:35:45.683Z,7.05
2022-08-14T18:38:42.910Z,7.88
2022-08-14T18:55:59.972Z,5.88
2022-08-14T19:15:28.570Z,8.45
2022-08-14T19:18:14.585Z,7.70
2022-08-14T19:20:52.772Z,5.25
2022-08-14T19:26:36.632Z,7.68
2022-08-14T19:29:23.520Z,6.50
2022-08-14T19:37:10.375Z,6.68
2022-08-14T19:39:53.494Z,5.70
2022-08-14T19:44:58.050Z,7.85
2022-08-14T19:50:37.953Z,8.18
2022-08-14T19:53:16.546Z,6.85
2022-08-14T19:55:59.740Z,9.32
2022-08-14T19:58:54.993Z,8.07
2022-08-14T20:01:36.348Z,7.70
2022-08-14T20:04:46.624Z,8.15
2022-08-14T20:06:57.139Z,6.68
2022-08-14T20:11:09.594Z,7.82
2022-08-14T20:12:34.605Z,8.32
2022-08-14T20:15:08.777Z,6.93
2022-08-14T20:17:44.438Z,8.55
2022-08-14T20:20:20.995Z,6.93
2022-08-14T20:25:37.594Z,12.05
2022-08-14T20:31:13.707Z,6.50
2022-08-14T20:36:25.865Z,6.93
2022-08-14T20:49:16.767Z,7.65
2022-08-14T20:51:58.332Z,7.18
2022-08-14T20:54:34.291Z,6.88
2022-08-14T20:57:07.790Z,8.82
2022-08-14T20:59:43.369Z,6.90
2022-08-14T21:02:29.518Z,7.60
2022-08-14T21:05:00.682Z,7.00
2022-08-14T21:10:33.208Z,9.45
2022-08-14T21:15:57.823Z,8.77
2022-08-14T21:18:29.422Z,8.75
2022-08-14T21:20:59.093Z,8.02
2022-08-14T21:23:32.860Z,11.55
2022-08-14T21:26:05.388Z,9.00
2022-08-14T21:36:07.540Z,8.07
2022-08-14T21:38:38.154Z,7.93
2022-08-14T21:41:43.291Z,10.18
2022-08-14T21:46:49.659Z,8.98
2022-08-14T21:49:23.454Z,9.77
2022-08-14T21:51:59.921Z,11.27
2022-08-14T21:54:50.088Z,13.80
2022-08-14T22:00:35.996Z,8.27
2022-08-14T22:03:04.642Z,8.70
2022-08-14T22:08:07.460Z,7.65
2022-08-14T22:10:41.053Z,7.30
2022-08-14T22:13:11.294Z,7.97
2022-08-14T22:15:43.901Z,8.35
2022-08-14T22:18:20.345Z,10.02
2022-08-14T22:20:53.821Z,6.75
2022-08-14T22:23:25.850Z,8.85
2022-08-14T22:28:32.995Z,9.52
2022-08-14T22:38:54.065Z,9.20
2022-08-14T22:43:59.841Z,9.70
2022-08-14T22:46:27.875Z,8.38
2022-08-14T22:48:57.596Z,9.40
2022-08-14T22:56:29.142Z,8.85
2022-08-14T23:07:07.366Z,7.95
2022-08-14T23:09:56.264Z,8.18
2022-08-14T23:12:29.303Z,8.43
2022-08-14T23:14:59.278Z,9.52
2022-08-14T23:20:19.348Z,9.93
2022-08-14T23:22:51.305Z,7.72
2022-08-14T23:25:56.881Z,8.10
2022-08-14T23:28:34.010Z,7.45
2022-08-14T23:30:57.419Z,7.53
2022-08-14T23:33:28.897Z,7.72
2022-08-14T23:35:58.811Z,8.07
2022-08-14T23:38:30.805Z,10.25
2022-08-14T23:41:00.747Z,8.30
2022-08-14T23:43:31.350Z,6.15
2022-08-14T23:45:59.956Z,9.05
2022-08-14T23:48:28.690Z,7.47
2022-08-14T23:56:19.495Z,7.25
2022-08-14T23:58:59.060Z,8.40
